Time;durP1;ratioP1;P1;durP2;ratioP2;P2;SDS_P1;SDS_P2;PMS_P1;PMS_P2;Temp;Humidity;BMP_temperature;BMP_pressure;BME280_temperature;BME280_humidity;BME280_pressure;Samples;Min_cycle;Max_cycle;Signal;HPM_P1;HPM_P2
2021/05/04 00:00:14;;;;;;;4.60;2.60;;;;;;;4.65;63.58;98522.92;1817299;79;20920;-75
2021/05/04 00:02:41;;;;;;;3.25;2.95;;;;;;;4.65;63.56;98520.70;1817354;79;20928;-75
2021/05/04 00:05:13;;;;;;;3.55;3.00;;;;;;;4.65;63.57;98523.37;1817481;79;20920;-76
2021/05/04 00:07:42;;;;;;;3.55;2.60;;;;;;;4.64;63.51;98528.31;1817260;79;21449;-75
2021/05/04 00:10:11;;;;;;;3.30;2.72;;;;;;;4.62;63.56;98525.72;1817255;79;21624;-75
2021/05/04 00:12:41;;;;;;;3.77;3.05;;;;;;;4.61;63.48;98526.64;1817371;79;21482;-75
2021/05/04 00:15:13;;;;;;;3.98;2.65;;;;;;;4.61;63.41;98529.30;1815415;78;20991;-75
2021/05/04 00:17:40;;;;;;;5.22;2.87;;;;;;;4.61;63.47;98527.11;1815236;79;21054;-75
2021/05/04 00:20:11;;;;;;;3.90;3.15;;;;;;;4.58;63.52;98524.11;1815315;79;21560;-75
2021/05/04 00:22:39;;;;;;;3.67;3.00;;;;;;;4.57;63.26;98523.70;1815400;79;22146;-75
2021/05/04 00:25:07;;;;;;;3.75;3.30;;;;;;;4.55;63.30;98525.57;1815002;79;20928;-76
2021/05/04 00:27:36;;;;;;;4.03;2.90;;;;;;;4.55;63.17;98526.90;1814714;79;20928;-75
2021/05/04 00:30:04;;;;;;;4.28;3.15;;;;;;;4.56;63.20;98533.08;1814562;79;20899;-75
2021/05/04 00:32:35;;;;;;;4.05;3.05;;;;;;;4.53;63.25;98530.95;1814729;79;20897;-75
2021/05/04 00:35:05;;;;;;;3.60;3.02;;;;;;;4.54;63.25;98534.50;1814812;79;22245;-75
2021/05/04 00:37:33;;;;;;;4.47;3.00;;;;;;;4.52;63.15;98535.89;1814692;79;21608;-75
2021/05/04 00:40:01;;;;;;;4.72;2.90;;;;;;;4.51;63.23;98540.80;1783473;79;20954;-76
2021/05/04 00:42:31;;;;;;;3.17;2.80;;;;;;;4.50;63.32;98547.52;1814734;79;20917;-76
2021/05/04 00:44:59;;;;;;;3.77;2.67;;;;;;;4.49;63.34;98544.45;1814746;79;20952;-76
2021/05/04 00:47:27;;;;;;;3.83;2.75;;;;;;;4.48;63.18;98541.41;1814779;79;21817;-75
2021/05/04 00:49:56;;;;;;;6.45;2.92;;;;;;;4.48;63.05;98542.73;1814736;79;21338;-76
2021/05/04 00:52:25;;;;;;;4.03;2.27;;;;;;;4.46;62.87;98541.91;1814669;79;20904;-75
2021/05/04 00:54:52;;;;;;;3.87;2.90;;;;;;;4.48;63.04;98544.06;1814661;79;20905;-74
2021/05/04 00:57:28;;;;;;;3.80;2.60;;;;;;;4.47;63.02;98542.33;1814736;79;20995;-76
2021/05/04 00:59:55;;;;;;;4.55;2.62;;;;;;;4.47;62.97;98546.31;1814664;79;20995;-74
2021/05/04 01:02:23;;;;;;;4.50;2.52;;;;;;;4.46;62.80;98547.23;1814639;79;20924;-76
2021/05/04 01:04:54;;;;;;;3.05;2.75;;;;;;;4.47;62.89;98543.18;1814292;78;20928;-77
2021/05/04 01:07:21;;;;;;;3.50;2.70;;;;;;;4.46;62.93;98541.47;1814612;79;20975;-76
2021/05/04 01:09:49;;;;;;;4.47;3.00;;;;;;;4.45;62.75;98537.08;1814667;79;20920;-76
2021/05/04 01:12:20;;;;;;;4.47;3.37;;;;;;;4.46;62.71;98540.59;1814655;79;21393;-76
2021/05/04 01:14:52;;;;;;;3.37;2.45;;;;;;;4.44;62.72;98539.80;1823093;78;21034;-76
2021/05/04 01:17:23;;;;;;;4.25;2.98;;;;;;;4.43;62.77;98534.06;1828515;78;20991;-75
2021/05/04 01:19:50;;;;;;;5.25;2.77;;;;;;;4.42;62.75;98539.00;1828429;78;20920;-76
2021/05/04 01:22:19;;;;;;;3.40;2.72;;;;;;;4.41;62.76;98533.27;1828550;78;20931;-75
2021/05/04 01:24:49;;;;;;;3.72;2.67;;;;;;;4.40;62.83;98540.84;1828659;78;21403;-76
2021/05/04 01:27:17;;;;;;;5.10;3.00;;;;;;;4.37;62.87;98538.31;1828482;78;20927;-75
2021/05/04 01:29:46;;;;;;;4.78;2.83;;;;;;;4.35;62.86;98539.70;1828315;78;20872;-75
2021/05/04 01:32:13;;;;;;;5.42;3.65;;;;;;;4.31;62.83;98532.33;1828614;78;21326;-75
2021/05/04 01:34:41;;;;;;;4.28;2.83;;;;;;;4.32;62.85;98538.06;1828551;78;20983;-75
2021/05/04 01:37:09;;;;;;;3.10;2.40;;;;;;;4.30;62.88;98526.63;1828391;78;21347;-76
2021/05/04 01:39:47;;;;;;;3.77;2.70;;;;;;;4.31;62.92;98527.02;1828540;78;20943;-75
2021/05/04 01:42:17;;;;;;;6.00;3.02;;;;;;;4.29;62.95;98527.55;1828555;78;21366;-75
2021/05/04 01:44:48;;;;;;;4.50;3.17;;;;;;;4.25;63.00;98528.59;1828764;78;21551;-76
2021/05/04 01:47:20;;;;;;;3.67;2.80;;;;;;;4.25;63.00;98528.59;1828862;78;21785;-76
2021/05/04 01:49:53;;;;;;;3.42;3.12;;;;;;;4.26;62.85;98525.49;1828604;78;21435;-73
2021/05/04 01:52:22;;;;;;;4.25;2.90;;;;;;;4.24;62.99;98533.53;1828502;78;21432;-76
2021/05/04 01:54:50;;;;;;;4.37;2.77;;;;;;;4.21;63.05;98531.00;1828498;78;21512;-75
2021/05/04 01:57:19;;;;;;;4.92;2.67;;;;;;;4.18;63.08;98528.47;1828441;78;20986;-76
2021/05/04 01:59:47;;;;;;;4.35;3.22;;;;;;;4.14;63.16;98528.17;1828567;78;20907;-75
2021/05/04 02:02:15;;;;;;;5.53;3.40;;;;;;;4.11;63.16;98522.98;1828439;78;21181;-75
2021/05/04 02:04:44;;;;;;;3.40;2.98;;;;;;;4.08;63.39;98527.95;1828446;78;20923;-75
2021/05/04 02:07:11;;;;;;;4.62;3.20;;;;;;;4.03;63.48;98524.63;1828392;78;20986;-75
2021/05/04 02:09:40;;;;;;;5.37;3.22;;;;;;;4.00;63.65;98530.54;1828383;78;20979;-75
2021/05/04 02:12:08;;;;;;;6.55;3.60;;;;;;;3.97;63.61;98531.08;1828464;78;21026;-75
2021/05/04 02:14:36;;;;;;;4.95;2.80;;;;;;;3.95;63.65;98530.72;1819606;78;21425;-75
2021/05/04 02:17:07;;;;;;;4.47;3.40;;;;;;;3.94;63.74;98538.28;1805432;79;20932;-74
2021/05/04 02:19:37;;;;;;;3.77;3.15;;;;;;;3.90;63.87;98544.67;1805632;79;20881;-75
2021/05/04 02:22:06;;;;;;;5.40;3.55;;;;;;;3.87;63.99;98535.02;1805456;79;20873;-75
2021/05/04 02:24:33;;;;;;;3.55;3.22;;;;;;;3.84;64.12;98540.45;1805516;79;20929;-74
2021/05/04 02:27:03;;;;;;;3.98;3.37;;;;;;;3.79;64.29;98530.48;1805484;78;21198;-75
2021/05/04 02:29:31;;;;;;;2.83;2.58;;;;;;;3.76;64.34;98538.56;1781063;79;20956;-75
2021/05/04 02:31:58;;;;;;;3.37;2.80;;;;;;;3.72;64.21;98534.29;1805463;79;20980;-75
2021/05/04 02:34:28;;;;;;;5.65;2.90;;;;;;;3.70;64.24;98533.49;1805394;79;21012;-75
2021/05/04 02:36:57;;;;;;;3.33;2.95;;;;;;;3.68;64.28;98539.34;1805811;79;20897;-76
2021/05/04 02:39:24;;;;;;;3.45;3.15;;;;;;;3.64;64.40;98529.27;1805837;79;22287;-75
2021/05/04 02:41:53;;;;;;;4.53;2.60;;;;;;;3.62;64.42;98529.33;1805676;79;20944;-75
2021/05/04 02:44:22;;;;;;;4.42;3.22;;;;;;;3.60;64.42;98529.86;1805588;79;21330;-76
2021/05/04 02:46:50;;;;;;;3.95;3.30;;;;;;;3.58;64.51;98533.05;1805638;79;20976;-75
2021/05/04 02:49:20;;;;;;;5.15;3.40;;;;;;;3.55;64.68;98533.17;1805446;79;21019;-75
2021/05/04 02:51:48;;;;;;;5.17;3.05;;;;;;;3.51;64.72;98527.56;1805452;79;21426;-75
2021/05/04 02:54:16;;;;;;;8.55;3.35;;;;;;;3.47;64.95;98531.28;1805351;79;20940;-75
2021/05/04 02:56:44;;;;;;;4.97;2.98;;;;;;;3.44;65.04;98532.72;1805615;79;20917;-75
2021/05/04 02:59:12;;;;;;;5.03;2.75;;;;;;;3.43;65.08;98537.62;1805505;79;21544;-75
2021/05/04 03:01:40;;;;;;;2.83;2.55;;;;;;;3.41;65.42;98532.84;1805485;79;20980;-75
2021/05/04 03:04:08;;;;;;;4.10;3.47;;;;;;;3.39;65.78;98542.63;1805551;79;22273;-75
2021/05/04 03:06:35;;;;;;;4.60;4.12;;;;;;;3.36;66.09;98533.45;1805504;79;21366;-75
2021/05/04 03:09:04;;;;;;;4.85;2.67;;;;;;;3.32;66.28;98535.37;1805426;79;20878;-75
2021/05/04 03:11:33;;;;;;;8.18;3.67;;;;;;;3.30;65.90;98537.22;1805383;79;20945;-75
2021/05/04 03:14:01;;;;;;;4.35;3.40;;;;;;;3.29;65.83;98543.44;1805370;79;21008;-74
2021/05/04 03:16:28;;;;;;;4.00;3.33;;;;;;;3.29;65.88;98537.28;1805674;79;22148;-74
2021/05/04 03:19:00;;;;;;;5.25;3.52;;;;;;;3.29;65.82;98535.48;1805500;79;20999;-75
2021/05/04 03:21:29;;;;;;;4.35;3.10;;;;;;;3.31;65.85;98531.00;1805511;79;21450;-75
2021/05/04 03:23:56;;;;;;;5.72;3.10;;;;;;;3.36;65.85;98534.78;1805414;79;20937;-77
2021/05/04 03:26:25;;;;;;;4.45;2.87;;;;;;;3.39;65.82;98530.68;1805488;79;21346;-76
2021/05/04 03:28:53;;;;;;;4.47;3.12;;;;;;;3.45;65.73;98527.80;1805347;79;21202;-76
2021/05/04 03:31:22;;;;;;;7.20;3.62;;;;;;;3.55;65.58;98533.17;1805354;79;20976;-75
2021/05/04 03:33:50;;;;;;;5.78;3.17;;;;;;;3.69;65.54;98535.73;1805393;79;21008;-75
2021/05/04 03:36:19;;;;;;;4.42;2.80;;;;;;;3.88;65.27;98544.73;1805511;79;21502;-76
2021/05/04 03:38:47;;;;;;;3.87;2.70;;;;;;;4.10;64.78;98530.55;1805361;79;21345;-75
2021/05/04 03:41:15;;;;;;;3.30;2.95;;;;;;;4.33;64.27;98530.46;1780461;79;21441;-75
2021/05/04 03:43:43;;;;;;;4.08;3.20;;;;;;;4.63;63.42;98525.25;1805310;79;20965;-76
2021/05/04 03:46:10;;;;;;;5.62;3.60;;;;;;;4.93;62.43;98523.03;1805443;79;20976;-75
2021/05/04 03:48:39;;;;;;;3.75;3.10;;;;;;;5.22;61.40;98528.86;1805327;79;20932;-75
2021/05/04 03:51:07;;;;;;;3.40;3.10;;;;;;;5.49;60.61;98535.19;1805409;79;20913;-75
2021/05/04 03:53:38;;;;;;;3.77;2.67;;;;;;;5.75;59.79;98528.13;1805409;79;21469;-75
2021/05/04 03:56:08;;;;;;;4.30;2.77;;;;;;;6.00;58.82;98528.33;1805422;79;21301;-75
2021/05/04 03:58:36;;;;;;;3.33;2.70;;;;;;;6.27;58.27;98533.24;1805370;79;20998;-75
2021/05/04 04:01:04;;;;;;;4.00;2.98;;;;;;;6.54;57.48;98530.13;1805558;79;20964;-75
2021/05/04 04:03:32;;;;;;;4.65;2.80;;;;;;;6.80;56.66;98529.66;1805654;79;20968;-75
2021/05/04 04:06:00;;;;;;;3.67;2.52;;;;;;;7.06;56.16;98531.42;1805655;79;22437;-75
2021/05/04 04:08:28;;;;;;;3.40;2.90;;;;;;;7.34;55.49;98535.30;1805502;79;21031;-75
2021/05/04 04:10:57;;;;;;;6.47;3.40;;;;;;;7.58;54.59;98531.75;1805552;79;20909;-76
2021/05/04 04:13:25;;;;;;;3.55;2.95;;;;;;;7.84;53.67;98538.34;1805551;79;20919;-75
2021/05/04 04:15:52;;;;;;;3.62;2.70;;;;;;;8.10;52.99;98538.66;1811438;79;21397;-76
2021/05/04 04:18:22;;;;;;;3.98;3.00;;;;;;;8.29;52.18;98524.63;1814739;79;22131;-75
2021/05/04 04:20:51;;;;;;;4.22;2.80;;;;;;;8.54;51.49;98529.91;1814579;79;20965;-75
2021/05/04 04:23:20;;;;;;;3.45;2.90;;;;;;;8.78;51.01;98528.94;1814749;78;20976;-77
2021/05/04 04:25:50;;;;;;;4.72;3.05;;;;;;;8.97;50.30;98530.03;1814720;79;20928;-76
2021/05/04 04:28:29;;;;;;;3.50;2.72;;;;;;;9.20;49.74;98535.78;1814725;79;20960;-76
2021/05/04 04:31:01;;;;;;;3.40;2.45;;;;;;;9.40;49.20;98534.07;1814594;79;21350;-76
2021/05/04 04:33:30;;;;;;;2.92;2.62;;;;;;;9.64;48.68;98531.29;1814639;79;21019;-76
2021/05/04 04:35:59;;;;;;;5.87;2.67;;;;;;;9.89;48.16;98538.14;1811330;79;20983;-76
2021/05/04 04:38:28;;;;;;;4.28;2.70;;;;;;;10.11;47.43;98536.27;1814698;79;21468;-76
2021/05/04 04:40:56;;;;;;;4.47;2.15;;;;;;;10.33;46.83;98533.55;1814674;79;20905;-76
2021/05/04 04:43:23;;;;;;;4.65;3.35;;;;;;;10.54;46.51;98529.05;1814695;79;21893;-77
2021/05/04 04:45:52;;;;;;;2.90;2.40;;;;;;;10.76;45.98;98535.18;1814617;79;20885;-76
2021/05/04 04:48:20;;;;;;;3.45;2.92;;;;;;;10.99;45.54;98532.27;1814679;78;21417;-76
2021/05/04 04:50:49;;;;;;;2.30;2.10;;;;;;;11.24;44.76;98538.61;1814706;79;21402;-76
2021/05/04 04:53:19;;;;;;;2.87;2.33;;;;;;;11.46;44.08;98538.84;1814770;79;21011;-78
2021/05/04 04:55:47;;;;;;;3.80;2.77;;;;;;;11.66;43.66;98545.47;1814793;79;21796;-77
2021/05/04 04:58:15;;;;;;;2.65;2.30;;;;;;;11.87;43.15;98543.09;1814566;79;20939;-77
2021/05/04 05:00:45;;;;;;;2.95;1.90;;;;;;;12.06;42.57;98539.06;1814679;79;20885;-76
2021/05/04 05:03:13;;;;;;;2.85;2.25;;;;;;;12.24;42.08;98539.06;1814712;79;20964;-77
2021/05/04 05:05:41;;;;;;;3.00;2.67;;;;;;;12.46;41.95;98540.16;1814682;79;20964;-77
2021/05/04 05:08:11;;;;;;;2.83;2.45;;;;;;;12.71;41.42;98539.17;1814644;78;21318;-76
2021/05/04 05:10:40;;;;;;;3.98;2.30;;;;;;;12.94;40.60;98541.44;1814499;79;20983;-76
2021/05/04 05:13:07;;;;;;;2.83;2.12;;;;;;;13.17;39.86;98538.81;1814849;79;20944;-78
2021/05/04 05:15:40;;;;;;;2.33;2.12;;;;;;;13.36;39.86;98537.77;1811625;78;21525;-77
2021/05/04 05:18:06;;;;;;;2.95;1.98;;;;;;;13.58;39.72;98532.03;1805517;79;20933;-76
2021/05/04 05:20:34;;;;;;;2.75;1.90;;;;;;;13.82;38.80;98535.09;1805489;79;21237;-76
2021/05/04 05:23:04;;;;;;;2.83;1.87;;;;;;;14.02;38.32;98527.58;1805477;79;21501;-76
2021/05/04 05:25:32;;;;;;;2.22;1.95;;;;;;;14.27;38.20;98537.23;1805471;79;20929;-75
2021/05/04 05:28:00;;;;;;;4.15;1.57;;;;;;;14.46;36.59;98528.45;1805465;79;20961;-76
2021/05/04 05:30:28;;;;;;;2.92;1.45;;;;;;;14.62;35.79;98529.91;1805412;79;21011;-77
2021/05/04 05:32:56;;;;;;;18.80;2.72;;;;;;;14.75;34.88;98527.88;1805449;79;21186;-77
2021/05/04 05:35:24;;;;;;;3.40;1.65;;;;;;;14.86;34.55;98523.42;1805562;79;20944;-77
2021/05/04 05:37:53;;;;;;;1.55;1.30;;;;;;;14.98;34.16;98521.02;1805499;79;21027;-76
2021/05/04 05:40:22;;;;;;;2.52;1.55;;;;;;;15.14;34.38;98522.76;1805480;79;21011;-77
2021/05/04 05:42:50;;;;;;;4.42;1.55;;;;;;;15.25;34.14;98512.36;1805615;79;20987;-77
2021/05/04 05:45:19;;;;;;;1.60;1.50;;;;;;;15.37;34.01;98506.36;1805846;79;21835;-77
2021/05/04 05:47:46;;;;;;;2.10;1.90;;;;;;;15.55;33.68;98513.38;1805556;79;21478;-77
2021/05/04 05:50:14;;;;;;;2.15;1.40;;;;;;;15.67;33.28;98512.77;1805653;79;20912;-77
2021/05/04 05:52:43;;;;;;;1.98;1.30;;;;;;;15.74;32.13;98503.12;1805512;79;20869;-77
2021/05/04 05:55:11;;;;;;;1.82;1.50;;;;;;;15.76;32.44;98506.55;1805711;79;20921;-78
2021/05/04 05:57:39;;;;;;;3.35;1.98;;;;;;;15.68;32.20;98506.38;1805434;79;21184;-76
2021/05/04 06:00:10;;;;;;;2.98;1.82;;;;;;;15.62;32.76;98505.06;1805512;79;21358;-76
2021/05/04 06:02:41;;;;;;;2.27;2.08;;;;;;;15.65;33.07;98497.17;1805642;79;20927;-77
2021/05/04 06:05:14;;;;;;;2.35;1.72;;;;;;;15.75;32.73;98503.50;1805007;79;21387;-80
2021/05/04 06:07:44;;;;;;;3.17;2.00;;;;;;;15.82;32.97;98497.06;1781730;79;20908;-78
2021/05/04 06:10:14;;;;;;;2.72;1.80;;;;;;;15.86;33.25;98493.94;1805430;79;21251;-78
2021/05/04 06:12:41;;;;;;;13.40;2.27;;;;;;;15.97;32.31;98490.75;1805544;79;21000;-78
2021/05/04 06:15:13;;;;;;;2.70;1.70;;;;;;;16.09;32.54;98485.58;1806039;79;21644;-79
2021/05/04 06:17:41;;;;;;;2.33;1.50;;;;;;;16.18;31.40;98477.97;1814616;79;21560;-77
2021/05/04 06:20:10;;;;;;;2.05;1.70;;;;;;;16.28;31.38;98480.69;1814588;79;20964;-80
2021/05/04 06:22:38;;;;;;;3.17;1.67;;;;;;;16.38;31.20;98473.92;1814601;79;22268;-79
2021/05/04 06:25:10;;;;;;;5.10;1.98;;;;;;;16.43;30.96;98464.38;1814582;79;20995;-77
2021/05/04 06:27:39;;;;;;;4.12;1.50;;;;;;;16.50;31.54;98464.66;1814473;79;21000;-79
2021/05/04 06:30:09;;;;;;;4.42;1.55;;;;;;;16.62;30.55;98463.52;1814180;78;20912;-79
2021/05/04 06:32:37;;;;;;;2.30;1.50;;;;;;;16.74;31.21;98460.17;1814475;79;20967;-81
2021/05/04 06:35:09;;;;;;;1.10;1.00;;;;;;;16.84;30.38;98462.86;1814588;79;21120;-76
2021/05/04 06:37:36;;;;;;;2.10;1.50;;;;;;;16.86;29.26;98459.53;1815379;79;20932;-79
2021/05/04 06:40:09;;;;;;;1.70;0.90;;;;;;;16.78;29.16;98449.88;1818268;79;20905;-79
2021/05/04 06:42:39;;;;;;;1.47;1.00;;;;;;;16.64;28.91;98459.81;1818300;79;20912;-80
2021/05/04 06:45:09;;;;;;;1.25;0.80;;;;;;;16.52;28.45;98457.73;1818450;79;21027;-81
2021/05/04 06:47:39;;;;;;;2.47;1.05;;;;;;;16.44;27.93;98457.97;1818129;79;21369;-81
2021/05/04 06:50:08;;;;;;;1.22;1.05;;;;;;;16.44;27.81;98454.37;1817787;79;21062;-81
2021/05/04 06:52:38;;;;;;;2.42;0.85;;;;;;;16.47;27.97;98462.23;1814465;79;21532;-80
2021/05/04 06:55:09;;;;;;;1.35;0.80;;;;;;;16.46;28.22;98459.18;1814649;79;21477;-81
2021/05/04 06:57:37;;;;;;;1.52;0.70;;;;;;;16.48;27.38;98458.53;1814480;79;20929;-74
2021/05/04 07:00:08;;;;;;;1.20;1.10;;;;;;;16.45;28.35;98452.03;1814548;79;21188;-77
2021/05/04 07:02:38;;;;;;;1.77;0.98;;;;;;;16.46;27.71;98451.05;1814479;79;20952;-78
2021/05/04 07:05:08;;;;;;;2.77;1.35;;;;;;;16.52;28.52;98447.73;1814618;79;21043;-78
2021/05/04 07:07:36;;;;;;;3.00;0.90;;;;;;;16.64;28.50;98446.26;1814449;79;21011;-73
2021/05/04 07:10:08;;;;;;;1.65;0.95;;;;;;;16.69;27.71;98439.89;1814569;79;20984;-75
2021/05/04 07:12:39;;;;;;;2.55;0.80;;;;;;;16.81;28.02;98448.23;1814550;79;21358;-77
2021/05/04 07:15:08;;;;;;;1.60;0.95;;;;;;;16.87;27.60;98449.05;1814594;79;20940;-75
2021/05/04 07:17:35;;;;;;;1.32;0.90;;;;;;;16.86;27.19;98445.13;1806042;79;20877;-74
2021/05/04 07:20:06;;;;;;;1.52;1.00;;;;;;;16.92;27.35;98442.67;1805443;79;21469;-73
2021/05/04 07:22:34;;;;;;;0.82;0.80;;;;;;;16.86;26.54;98438.34;1805366;79;20992;-74
2021/05/04 07:25:09;;;;;;;0.60;0.60;;;;;;;16.83;27.06;98443.52;1805535;79;22343;-76
2021/05/04 07:27:37;;;;;;;1.30;0.90;;;;;;;16.79;28.18;98436.66;1805390;79;20928;-74
2021/05/04 07:30:07;;;;;;;2.40;0.80;;;;;;;16.90;28.11;98438.38;1805415;79;20912;-75
2021/05/04 07:32:34;;;;;;;3.05;1.42;;;;;;;17.08;27.60;98441.22;1805662;79;21004;-72
2021/05/04 07:35:05;;;;;;;1.45;0.85;;;;;;;17.17;27.70;98432.20;1805737;79;21465;-73
2021/05/04 07:37:37;;;;;;;1.05;0.80;;;;;;;17.30;27.48;98430.00;1805544;79;21364;-75
2021/05/04 07:40:07;;;;;;;0.95;0.78;;;;;;;17.36;25.90;98428.56;1805500;79;21495;-76
2021/05/04 07:42:37;;;;;;;0.80;0.80;;;;;;;17.25;26.53;98428.23;1805701;79;20953;-74
2021/05/04 07:45:08;;;;;;;3.20;0.90;;;;;;;17.14;26.36;98429.27;1805849;79;20925;-75
2021/05/04 07:47:38;;;;;;;3.08;0.88;;;;;;;17.14;27.05;98427.06;1805700;79;20908;-74
2021/05/04 07:50:12;;;;;;;10.88;1.55;;;;;;;17.14;25.65;98415.70;1805505;79;22607;-73
2021/05/04 07:52:43;;;;;;;0.70;0.70;;;;;;;17.14;27.64;98418.41;1798650;79;21022;-73
2021/05/04 07:55:11;;;;;;;0.60;0.60;;;;;;;17.13;26.86;98417.20;1793695;79;20941;-74
2021/05/04 07:57:39;;;;;;;1.00;0.85;;;;;;;17.23;27.51;98403.59;1758883;80;20985;-73
2021/05/04 08:00:11;;;;;;;1.87;0.80;;;;;;;17.39;27.12;98402.95;1727675;83;20962;-75
2021/05/04 08:02:44;;;;;;;1.27;1.00;;;;;;;17.50;27.10;98386.46;1727747;83;22141;-71
2021/05/04 08:05:18;;;;;;;1.22;0.95;;;;;;;17.62;27.18;98389.84;1727745;83;21579;-73
2021/05/04 08:07:51;;;;;;;1.10;0.90;;;;;;;17.72;27.51;98387.91;1727700;82;21021;-72
2021/05/04 08:10:24;;;;;;;0.75;0.75;;;;;;;17.80;26.87;98382.59;1727696;83;21005;-74
2021/05/04 08:12:54;;;;;;;1.20;0.88;;;;;;;17.95;25.22;98382.94;1727789;83;21355;-73
2021/05/04 08:15:23;;;;;;;1.00;0.90;;;;;;;18.04;26.41;98375.74;1727795;83;21202;-74
2021/05/04 08:17:58;;;;;;;1.12;0.90;;;;;;;18.00;26.39;98372.97;1727523;82;21060;-73
2021/05/04 08:20:33;;;;;;;1.00;0.90;;;;;;;17.85;25.18;98373.98;1727695;82;20989;-74
2021/05/04 08:23:05;;;;;;;1.82;1.10;;;;;;;17.61;25.96;98372.70;1727646;83;21355;-73
2021/05/04 08:25:33;;;;;;;2.33;0.75;;;;;;;17.45;26.01;98376.56;1727806;83;21558;-73
2021/05/04 08:28:04;;;;;;;1.50;1.00;;;;;;;17.41;26.09;98363.80;1727703;83;21204;-76
2021/05/04 08:30:32;;;;;;;3.98;0.75;;;;;;;17.47;26.03;98357.77;1727634;83;21080;-73
2021/05/04 08:33:02;;;;;;;1.42;1.07;;;;;;;17.59;26.54;98356.20;1727673;83;21001;-73
2021/05/04 08:35:32;;;;;;;0.68;0.68;;;;;;;17.69;25.54;98352.42;1727771;82;20993;-75
2021/05/04 08:37:59;;;;;;;2.45;0.93;;;;;;;17.80;24.57;98354.06;1727480;83;20985;-76
2021/05/04 08:40:28;;;;;;;1.10;1.00;;;;;;;17.80;24.31;98353.19;1727072;83;21370;-74
2021/05/04 08:42:58;;;;;;;2.00;0.70;;;;;;;17.79;24.89;98348.79;1757468;81;21057;-75
2021/05/04 08:45:28;;;;;;;1.32;1.22;;;;;;;17.84;26.49;98353.25;1727525;83;20971;-76
2021/05/04 08:47:57;;;;;;;1.75;0.68;;;;;;;17.84;25.35;98339.66;1727540;83;21025;-74
2021/05/04 08:50:25;;;;;;;0.90;0.90;;;;;;;17.82;24.87;98333.55;1727586;83;21316;-73
2021/05/04 08:52:52;;;;;;;1.40;1.20;;;;;;;17.75;24.95;98329.72;1727537;83;21355;-75
2021/05/04 08:55:21;;;;;;;1.67;0.70;;;;;;;17.69;24.28;98330.69;1727798;83;21001;-75
2021/05/04 08:57:50;;;;;;;1.42;0.68;;;;;;;17.55;24.43;98327.14;1727697;83;21052;-75
2021/05/04 09:00:18;;;;;;;1.20;0.88;;;;;;;17.56;26.24;98320.69;1727550;83;20941;-75
2021/05/04 09:03:12;;;;;;;1.57;0.60;;;;;;;17.60;25.58;98320.74;1727749;83;20953;-76
2021/05/04 09:05:55;;;;;;;4.47;0.80;;;;;;;17.62;24.88;98316.00;1727795;83;21287;-74
2021/05/04 09:08:44;;;;;;;1.10;0.72;;;;;;;17.66;25.18;98318.77;1727703;83;21076;-74
2021/05/04 09:11:30;;;;;;;3.27;0.90;;;;;;;17.78;26.16;98310.39;1727582;83;21041;-74
2021/05/04 09:14:42;;;;;;;1.52;1.32;;;;;;;17.91;26.69;98304.13;1727531;83;20953;-74
2021/05/04 09:16:34;;;;;;;3.08;1.07;;;;;;;18.04;25.71;98299.13;1703638;81;21115;-75
2021/05/04 09:19:22;;;;;;;1.47;0.80;;;;;;;18.13;26.47;98289.69;1727635;83;22390;-73
2021/05/04 09:21:43;;;;;;;2.15;1.00;;;;;;;18.20;25.88;98291.62;1724630;83;21056;-74
2021/05/04 09:24:43;;;;;;;1.52;0.93;;;;;;;18.26;25.51;98298.78;1727881;82;21032;-76
2021/05/04 09:27:15;;;;;;;2.00;0.82;;;;;;;18.25;26.06;98293.86;1727782;83;20997;-75
2021/05/04 09:29:53;;;;;;;1.57;1.07;;;;;;;18.28;25.50;98290.83;1727716;83;20961;-76
2021/05/04 09:32:34;;;;;;;1.20;0.68;;;;;;;18.29;26.48;98288.95;1705243;83;21337;-75
2021/05/04 09:35:06;;;;;;;3.70;1.15;;;;;;;18.29;25.00;98278.95;1727557;83;21044;-76
2021/05/04 09:37:43;;;;;;;2.58;0.98;;;;;;;18.27;25.74;98280.95;1727649;83;20957;-75
2021/05/04 09:40:27;;;;;;;1.72;0.65;;;;;;;18.20;25.78;98282.62;1705850;83;21036;-74
2021/05/04 09:43:24;;;;;;;1.25;0.80;;;;;;;18.13;26.65;98273.38;1727705;83;20922;-74
2021/05/04 09:45:56;;;;;;;0.62;0.55;;;;;;;18.05;25.72;98268.72;1757798;81;21420;-76
2021/05/04 09:48:34;;;;;;;0.62;0.62;;;;;;;17.98;24.63;98263.07;1727532;83;20966;-77
2021/05/04 09:51:15;;;;;;;1.27;0.65;;;;;;;17.92;25.44;98271.00;1727667;83;21021;-75
2021/05/04 09:53:49;;;;;;;0.80;0.80;;;;;;;17.84;25.43;98255.45;1727312;83;21005;-75
2021/05/04 09:56:33;;;;;;;2.35;0.70;;;;;;;17.79;24.11;98264.06;1727628;83;20993;-74
2021/05/04 09:59:05;;;;;;;2.05;1.00;;;;;;;17.70;25.07;98249.56;1727582;83;21423;-75
2021/05/04 10:01:32;;;;;;;1.40;0.85;;;;;;;17.66;25.58;98261.73;1727542;83;21418;-75
2021/05/04 10:04:01;;;;;;;1.12;0.80;;;;;;;17.65;25.18;98254.59;1727691;83;21029;-74
2021/05/04 10:06:28;;;;;;;1.40;0.90;;;;;;;17.61;24.83;98253.69;1727648;83;20918;-75
2021/05/04 10:09:01;;;;;;;1.37;0.90;;;;;;;17.58;25.00;98254.00;1727627;83;20937;-75
2021/05/04 10:11:28;;;;;;;2.20;0.98;;;;;;;17.57;24.67;98249.08;1727735;82;21450;-76
2021/05/04 10:13:58;;;;;;;1.92;0.80;;;;;;;17.51;24.02;98240.20;1727477;82;21044;-76
2021/05/04 10:16:31;;;;;;;4.17;1.00;;;;;;;17.46;25.19;98227.59;1705397;82;21008;-74
2021/05/04 10:19:02;;;;;;;1.50;0.90;;;;;;;17.40;24.24;98237.71;1804301;79;20949;-75
2021/05/04 10:21:31;;;;;;;1.22;0.70;;;;;;;17.28;23.79;98233.87;1738261;82;21000;-74
2021/05/04 10:24:00;;;;;;;1.85;0.90;;;;;;;17.20;25.54;98229.71;1737978;82;21198;-75
2021/05/04 10:26:30;;;;;;;1.12;0.93;;;;;;;17.14;24.84;98223.53;1738074;82;20961;-74
2021/05/04 10:29:04;;;;;;;1.85;0.93;;;;;;;17.16;25.86;98218.80;1738000;82;21063;-77
2021/05/04 10:31:45;;;;;;;2.05;1.10;;;;;;;17.19;25.85;98218.50;1738008;82;20942;-75
2021/05/04 10:34:33;;;;;;;5.87;1.50;;;;;;;17.26;25.80;98202.45;1738117;82;20984;-75
2021/05/04 10:37:05;;;;;;;1.32;0.88;;;;;;;17.31;25.95;98217.27;1768817;81;22105;-74
2021/05/04 10:39:43;;;;;;;1.07;0.80;;;;;;;17.36;25.17;98210.52;1738077;82;21532;-75
2021/05/04 10:42:18;;;;;;;1.12;0.80;;;;;;;17.40;25.28;98218.71;1738057;82;20981;-74
2021/05/04 10:45:00;;;;;;;1.72;0.90;;;;;;;17.32;23.89;98210.81;1736228;82;21501;-75
2021/05/04 10:47:49;;;;;;;1.57;0.88;;;;;;;17.26;25.30;98200.58;1737998;82;21759;-74
2021/05/04 10:50:27;;;;;;;3.50;0.82;;;;;;;17.21;25.08;98200.19;1738032;82;21208;-74
2021/05/04 10:52:59;;;;;;;1.12;0.80;;;;;;;17.07;25.82;98192.58;1734852;82;20964;-77
2021/05/04 10:55:54;;;;;;;1.05;0.75;;;;;;;17.01;26.23;98185.89;1708024;82;21486;-74
2021/05/04 10:58:25;;;;;;;2.17;0.70;;;;;;;17.03;26.21;98178.95;1730710;82;20997;-75
2021/05/04 11:00:58;;;;;;;2.25;1.00;;;;;;;17.06;26.94;98165.08;1738185;82;22066;-74
2021/05/04 11:03:35;;;;;;;1.40;0.80;;;;;;;17.07;25.79;98154.08;1738142;82;21491;-75
2021/05/04 11:06:29;;;;;;;0.90;0.60;;;;;;;17.11;25.38;98158.72;1738115;82;20909;-74
2021/05/04 11:09:11;;;;;;;1.82;1.00;;;;;;;17.13;26.71;98162.12;1738005;82;21020;-74
2021/05/04 11:11:42;;;;;;;3.10;0.90;;;;;;;17.16;27.38;98158.58;1736461;82;20898;-75
2021/05/04 11:14:19;;;;;;;2.00;0.95;;;;;;;17.22;25.98;98155.77;1738233;82;21617;-75
2021/05/04 11:16:58;;;;;;;1.95;0.95;;;;;;;17.26;26.42;98154.44;1737529;82;21072;-74
2021/05/04 11:19:30;;;;;;;1.17;0.85;;;;;;;17.28;25.56;98147.49;1727511;83;20914;-75
2021/05/04 11:22:06;;;;;;;2.45;1.07;;;;;;;17.29;26.97;98150.05;1727477;82;21096;-74
2021/05/04 11:24:40;;;;;;;2.95;1.05;;;;;;;17.23;26.02;98127.63;1727645;83;20969;-74
2021/05/04 11:27:16;;;;;;;11.93;2.37;;;;;;;17.22;27.44;98125.08;1727638;83;21045;-74
2021/05/04 11:29:49;;;;;;;2.47;1.20;;;;;;;17.23;26.58;98114.06;1727678;83;21833;-74
2021/05/04 11:32:31;;;;;;;1.10;0.77;;;;;;;17.27;26.51;98120.87;1727633;83;21048;-75
2021/05/04 11:34:59;;;;;;;0.80;0.70;;;;;;;17.28;26.48;98118.52;1727277;83;20969;-75
2021/05/04 11:37:36;;;;;;;1.20;0.90;;;;;;;17.23;27.36;98115.42;1705483;83;20926;-73
2021/05/04 11:40:35;;;;;;;1.22;0.80;;;;;;;17.22;27.77;98112.34;1727632;83;21052;-76
2021/05/04 11:43:07;;;;;;;1.72;1.25;;;;;;;17.22;27.59;98100.13;1616967;88;21403;-76
2021/05/04 11:45:38;;;;;;;1.10;1.00;;;;;;;17.21;26.98;98103.84;1671452;85;21057;-76
2021/05/04 11:48:07;;;;;;;1.32;1.10;;;;;;;17.25;26.22;98096.23;1671328;85;21013;-75
2021/05/04 11:50:39;;;;;;;1.37;1.00;;;;;;;17.30;27.30;98083.07;1671197;85;21017;-76
2021/05/04 11:53:16;;;;;;;0.72;0.70;;;;;;;17.33;27.01;98090.39;1671337;85;20965;-73